SBOSBO FLR / LIRQ
Speedbird OnlineSpeedbird Online FLR / LIRQ

Peretola Airport
07:51 4.6°C

Location Florence, Italy
Latitude: 43.810001
Longitude: 11.2051
Web Airport Website | Wikipedia
Altitude 43 Meter / 142 Feet
Distance 1,189 KM / 739 Miles
from London.
Time Zone UTC +1 hours (Europe/Rome)
Codes IATA: FLR
ICAO: LIRQ
Currency £1 equals EUR 1.14
Runways
RunwayLength (m)Surface
051560Asphalt
231560Asphalt
Radio
TypeDescriptionFrequency
APPAPP126.075
ATISATIS129.35
TWRFIRENZE TWR118.3
Live ATC
METAR LIRQ 290620Z VRB07G22KT CAVOK 06/M02 Q1023
TAF TAF LIRQ 290500Z 2906/3006 02010KT CAVOK
Weather As Of 29 Jan 2023 07:51
Description Clear sky
Wind 13 km/h from North (0°)
Cloud Cover 0%
Precipitation Rain: none, Snow: none
Sunrise 07:35
Sunset 17:20
Lounges Aeroporti VIP Club , Main Building
Rotations During the last 90 days there were
140 flights from LCY
140 flights to LCY
1 flights to STN



Support Speedbird Online

© 2017-2023 Speedbird Online